LFAC Airport Information

Runway Information
Runway 06 Length 5036 ft width 148 ft Elevation 11 ft Threshold N/A Heading 61
Runway 24 Length 5036 ft Width 148 ft Elevation 11 ft Threshold N/A Heading 241
Airport Frequencies
Type APP Name LILLE APP Frequency 120.275 MHZ
Type ATIS Name ATIS Frequency 135.45 MHZ
Type TWR Name TWR Frequency 128.925 MHZ
Airport Navaids
Airport Weather Information & NOTAM
ADDS - METARS form results

(1646 UTC 05 February 2023)
Data provider http://aviationweather.gov/metar/data/
 
METAR text: LFAC 051630Z AUTO 03012KT 9999 SCT024 BKN031 07/03 Q1044
Conditions at: LFAC (CALAIS/DUNKERQUE, FR) observed 1630 UTC 05 February 2023
Temperature: 7.0°C (45°F)
Dewpoint: 3.0°C (37°F) [RH = 76%]
Pressure (altimeter): 30.83 inches Hg (1044.0 mb)
Winds: from the NNE (30 degrees) at 14 MPH (12 knots; 6.2 m/s)
Visibility: 6 or more miles (10+ km)
Ceiling: 3100 feet AGL
Clouds: scattered clouds at 2400 feet AGL
broken clouds at 3100 feet AGL
Weather: no significant weather observed at this time

METAR text: LFAC 051600Z AUTO 04015KT 9999 FEW026 07/03 Q1043
Conditions at: LFAC (CALAIS/DUNKERQUE, FR) observed 1600 UTC 05 February 2023
Temperature: 7.0°C (45°F)
Dewpoint: 3.0°C (37°F) [RH = 76%]
Pressure (altimeter): 30.80 inches Hg (1043.0 mb)
Winds: from the NE (40 degrees) at 17 MPH (15 knots; 7.7 m/s)
Visibility: 6 or more miles (10+ km)
Ceiling: at least 12,000 feet AGL
Clouds: few clouds at 2600 feet AGL
Weather: no significant weather observed at this time